Time;durP1;ratioP1;P1;durP2;ratioP2;P2;SDS_P1;SDS_P2;PMS_P1;PMS_P2;Temp;Humidity;BMP_temperature;BMP_pressure;BME280_temperature;BME280_humidity;BME280_pressure;Samples;Min_cycle;Max_cycle;Signal;HPM_P1;HPM_P2
2022/09/26 00:00:04;;;;;;;18.30;14.50;;;;;;;8.63;81.69;99740.67;85852;1300;93898;-61
2022/09/26 00:02:33;;;;;;;17.50;14.60;;;;;;;8.57;81.77;99736.35;85833;1300;79915;-62
2022/09/26 00:04:43;;;;;;;18.70;15.10;;;;;;;8.52;81.78;99732.54;85834;1300;81379;-61
2022/09/26 00:06:54;;;;;;;18.00;15.00;;;;;;;8.52;81.96;99733.04;85849;1290;100038;-48
2022/09/26 00:09:02;;;;;;;17.90;14.20;;;;;;;8.48;81.93;99732.04;85819;1293;88951;-60
2022/09/26 00:11:14;;;;;;;20.20;15.80;;;;;;;8.44;81.94;99724.39;85850;1298;95087;-59
2022/09/26 00:13:22;;;;;;;20.60;16.50;;;;;;;8.42;82.14;99723.20;85838;1285;80857;-61
2022/09/26 00:15:31;;;;;;;19.70;15.10;;;;;;;8.43;81.95;99722.30;85844;1300;81699;-61
2022/09/26 00:17:40;;;;;;;19.20;15.50;;;;;;;8.38;81.90;99719.30;85834;1294;99084;-62
2022/09/26 00:19:49;;;;;;;19.20;15.20;;;;;;;8.35;81.89;99721.14;85833;1284;88271;-61
2022/09/26 00:21:58;;;;;;;19.40;15.40;;;;;;;8.34;81.82;99716.98;85854;1299;93141;-61
2022/09/26 00:24:09;;;;;;;18.20;15.40;;;;;;;8.33;81.99;99715.27;85832;1295;82409;-62
2022/09/26 00:26:21;;;;;;;18.10;14.60;;;;;;;8.32;81.98;99709.23;85876;1302;80590;-62
2022/09/26 00:28:31;;;;;;;16.40;14.70;;;;;;;8.29;81.98;99705.60;85789;1300;99926;-61
2022/09/26 00:30:43;;;;;;;18.90;16.00;;;;;;;8.28;81.97;99703.61;85823;1297;88563;-62
2022/09/26 00:32:52;;;;;;;18.50;15.50;;;;;;;8.25;81.92;99704.11;85850;1284;96182;-56
2022/09/26 00:35:02;;;;;;;19.10;15.10;;;;;;;8.22;81.89;99700.98;85789;1300;81882;-58
2022/09/26 00:37:11;;;;;;;18.30;15.20;;;;;;;8.20;82.10;99701.20;85844;1291;82090;-62
2022/09/26 00:39:20;;;;;;;17.90;14.60;;;;;;;8.18;81.87;99699.83;85810;1302;98885;-56
2022/09/26 00:41:29;;;;;;;17.20;15.00;;;;;;;8.15;81.97;99699.28;85811;1294;89137;-57
2022/09/26 00:43:41;;;;;;;18.10;14.10;;;;;;;8.10;81.94;99698.86;85804;1302;95129;-58
2022/09/26 00:45:51;;;;;;;18.40;14.60;;;;;;;8.04;81.86;99702.35;85823;1291;81775;-57
2022/09/26 00:48:05;;;;;;;17.30;14.80;;;;;;;7.99;82.07;99705.32;85837;1292;82554;-56
2022/09/26 00:50:17;;;;;;;;;;;;;;;7.98;81.98;99704.06;85850;1286;99969;-59
2022/09/26 00:52:31;;;;;;;18.00;14.50;;;;;;;7.95;81.98;99705.27;85846;1301;88229;-61
2022/09/26 00:54:44;;;;;;;21.50;15.30;;;;;;;7.92;82.08;99706.40;85814;1284;94555;-62
2022/09/26 00:56:56;;;;;;;19.10;15.30;;;;;;;7.88;82.13;99708.87;85834;1300;81526;-62
2022/09/26 00:59:08;;;;;;;17.70;14.00;;;;;;;7.85;82.25;99710.69;85834;1300;82921;-61
2022/09/26 01:01:18;;;;;;;18.50;14.70;;;;;;;7.82;82.13;99711.04;85803;1285;98021;-61
2022/09/26 01:03:31;;;;;;;19.00;14.10;;;;;;;7.80;82.07;99707.73;85831;1301;88588;-60
2022/09/26 01:05:40;;;;;;;18.20;14.70;;;;;;;7.75;82.16;99703.63;85826;1300;94758;-60
2022/09/26 01:07:50;;;;;;;18.10;14.60;;;;;;;7.71;82.10;99705.33;85839;1300;82408;-58
2022/09/26 01:10:01;;;;;;;17.00;13.50;;;;;;;7.69;82.16;99701.16;85829;1300;80897;-57
2022/09/26 01:12:15;;;;;;;16.20;14.10;;;;;;;7.67;82.24;99699.63;85820;1285;100136;-55
2022/09/26 01:14:24;;;;;;;16.50;13.30;;;;;;;7.63;82.25;99698.48;85849;1302;87677;-59
2022/09/26 01:16:33;;;;;;;17.80;14.20;;;;;;;7.60;82.33;99694.86;85795;1300;95231;-58
2022/09/26 01:18:43;;;;;;;15.80;14.10;;;;;;;7.61;82.31;99695.67;85710;1295;83989;-58
2022/09/26 01:21:01;;;;;;;16.90;13.50;;;;;;;7.58;82.19;99696.52;85814;1300;81089;-60
2022/09/26 01:23:54;;;;;;;16.70;14.60;;;;;;;7.55;82.25;99697.20;85827;1300;100185;-60
2022/09/26 01:26:31;;;;;;;16.70;14.00;;;;;;;7.51;82.20;99695.50;85834;1300;88381;-61
2022/09/26 01:29:04;;;;;;;18.40;14.70;;;;;;;7.51;82.23;99693.14;85833;1300;94136;-61
2022/09/26 01:31:28;;;;;;;19.50;14.30;;;;;;;7.55;82.39;99693.70;85794;1293;82501;-61
2022/09/26 01:34:08;;;;;;;18.80;15.10;;;;;;;7.59;82.49;99688.88;85789;1296;81407;-60
2022/09/26 01:37:06;;;;;;;21.30;16.10;;;;;;;7.61;82.47;99684.88;85760;1285;99601;-58
2022/09/26 01:39:38;;;;;;;17.30;14.80;;;;;;;7.61;82.64;99681.00;85842;1300;88621;-56
2022/09/26 01:42:04;;;;;;;16.30;14.50;;;;;;;7.53;82.67;99681.20;85791;1292;95531;-61
2022/09/26 01:44:29;;;;;;;18.20;14.90;;;;;;;7.50;82.46;99676.67;85830;1294;81628;-60
2022/09/26 01:46:45;;;;;;;15.90;14.20;;;;;;;7.43;82.56;99673.58;85700;1289;82707;-60
2022/09/26 01:49:03;;;;;;;22.10;14.30;;;;;;;7.35;82.62;99672.75;85811;1300;99199;-61
2022/09/26 01:51:21;;;;;;;17.80;15.30;;;;;;;7.35;82.55;99672.25;85842;1294;88791;-58
2022/09/26 01:53:39;;;;;;;19.00;14.60;;;;;;;7.29;82.60;99674.20;85831;1292;94040;-58
2022/09/26 01:55:53;;;;;;;16.50;14.10;;;;;;;7.26;82.72;99671.69;85777;1300;80783;-57
2022/09/26 01:58:10;;;;;;;17.40;14.00;;;;;;;7.23;82.61;99671.73;85865;1300;81726;-50
2022/09/26 02:00:21;;;;;;;17.20;14.30;;;;;;;7.20;82.78;99673.54;85868;1301;99162;-58
2022/09/26 02:02:35;;;;;;;18.20;15.00;;;;;;;7.16;82.59;99679.40;85781;1300;89284;-61
2022/09/26 02:04:49;;;;;;;18.50;14.60;;;;;;;7.10;82.59;99679.55;85868;1294;93056;-60
2022/09/26 02:07:09;;;;;;;16.70;14.30;;;;;;;7.06;82.64;99676.61;85566;1300;338424;-60
2022/09/26 02:09:22;;;;;;;17.70;14.40;;;;;;;7.03;82.39;99674.70;85835;1300;83201;-59
2022/09/26 02:11:31;;;;;;;15.10;12.90;;;;;;;6.96;82.67;99676.59;85817;1294;99676;-59
2022/09/26 02:13:47;;;;;;;17.60;14.50;;;;;;;6.93;82.48;99675.05;85800;1302;89193;-60
2022/09/26 02:16:07;;;;;;;17.00;14.10;;;;;;;6.90;82.68;99672.86;85803;1291;92923;-61
2022/09/26 02:18:24;;;;;;;17.40;14.60;;;;;;;6.86;82.63;99675.52;85822;1291;78964;-59
2022/09/26 02:20:38;;;;;;;18.90;14.60;;;;;;;6.82;82.60;99674.76;85839;1299;83307;-60
2022/09/26 02:22:46;;;;;;;18.30;14.90;;;;;;;6.80;82.68;99673.07;85823;1301;100331;-61
2022/09/26 02:24:57;;;;;;;17.40;14.40;;;;;;;6.78;82.62;99668.34;85805;1292;89284;-61
2022/09/26 02:27:06;;;;;;;18.50;15.00;;;;;;;6.76;82.63;99668.17;85808;1299;95708;-62
2022/09/26 02:29:15;;;;;;;19.60;14.80;;;;;;;6.76;82.62;99664.55;85822;1285;82571;-60
2022/09/26 02:31:28;;;;;;;17.50;14.40;;;;;;;6.75;82.54;99670.73;85833;1299;83218;-59
2022/09/26 02:33:37;;;;;;;18.40;15.30;;;;;;;6.71;82.53;99671.74;85784;1296;99186;-62
2022/09/26 02:35:57;;;;;;;18.10;14.70;;;;;;;6.70;82.62;99673.57;85813;1285;88881;-61
2022/09/26 02:38:08;;;;;;;18.10;15.00;;;;;;;6.68;82.60;99672.55;85801;1284;95675;-59
2022/09/26 02:40:25;;;;;;;17.60;13.40;;;;;;;6.66;82.52;99670.24;85826;1284;80397;-51
2022/09/26 02:42:43;;;;;;;18.90;14.30;;;;;;;6.66;82.69;99673.31;85809;1299;81245;-58
2022/09/26 02:45:20;;;;;;;16.90;14.90;;;;;;;6.58;82.57;99671.93;85839;1300;99716;-58
2022/09/26 02:47:59;;;;;;;18.70;15.20;;;;;;;6.56;82.80;99666.95;85816;1284;89982;-57
2022/09/26 02:50:34;;;;;;;16.70;14.10;;;;;;;6.62;82.83;99664.52;85853;1293;93624;-52
2022/09/26 02:52:56;;;;;;;18.10;14.80;;;;;;;6.61;82.88;99663.31;85797;1301;82723;-57
2022/09/26 02:55:19;;;;;;;18.20;14.70;;;;;;;6.56;82.85;99665.53;85862;1293;83062;-60
2022/09/26 02:57:41;;;;;;;18.30;14.60;;;;;;;6.52;82.77;99665.98;85789;1287;99419;-54
2022/09/26 02:59:58;;;;;;;18.50;14.90;;;;;;;6.47;82.79;99662.30;85827;1293;88975;-58
2022/09/26 03:02:14;;;;;;;18.90;15.20;;;;;;;6.45;82.70;99663.48;85825;1300;94561;-61
2022/09/26 03:04:31;;;;;;;22.80;15.40;;;;;;;6.41;82.83;99664.63;85784;1300;82409;-61
2022/09/26 03:06:44;;;;;;;21.50;16.00;;;;;;;6.40;82.85;99661.14;85789;1301;81606;-63
2022/09/26 03:08:56;;;;;;;19.00;15.20;;;;;;;6.38;82.91;99657.34;85824;1278;97382;-61
2022/09/26 03:11:12;;;;;;;18.70;14.70;;;;;;;6.37;82.94;99657.96;85815;1300;87324;-60
2022/09/26 03:13:24;;;;;;;19.40;14.80;;;;;;;6.34;82.86;99657.58;85826;1295;95399;-61
2022/09/26 03:15:34;;;;;;;20.40;14.70;;;;;;;6.33;82.94;99657.16;85840;1294;81853;-61
2022/09/26 03:17:50;;;;;;;17.20;14.80;;;;;;;6.31;83.16;99655.94;85822;1300;80762;-62
2022/09/26 03:20:05;;;;;;;20.60;15.50;;;;;;;6.29;82.80;99652.42;85824;1301;99892;-57
2022/09/26 03:22:16;;;;;;;18.00;14.70;;;;;;;6.26;82.91;99649.59;85710;1284;88862;-56
2022/09/26 03:24:26;;;;;;;20.30;15.30;;;;;;;6.25;82.80;99649.21;85785;1286;93722;-57
2022/09/26 03:26:36;;;;;;;17.30;14.10;;;;;;;6.22;83.02;99648.46;85804;1293;82340;-58
2022/09/26 03:28:46;;;;;;;19.30;15.20;;;;;;;6.18;83.05;99648.83;85819;1295;83083;-58
2022/09/26 03:30:55;;;;;;;21.20;15.90;;;;;;;6.17;82.93;99647.43;85823;1295;97585;-59
2022/09/26 03:33:04;;;;;;;18.80;16.30;;;;;;;6.16;83.19;99645.44;85836;1293;86659;-58
2022/09/26 03:35:14;;;;;;;18.00;15.40;;;;;;;6.13;83.20;99648.26;85814;1301;95168;-50
2022/09/26 03:37:23;;;;;;;18.60;16.10;;;;;;;6.12;83.19;99644.20;85833;1295;80541;-58
2022/09/26 03:39:31;;;;;;;17.50;14.90;;;;;;;6.08;83.21;99643.34;85824;1293;82843;-58
2022/09/26 03:41:41;;;;;;;19.20;15.70;;;;;;;6.06;83.32;99642.85;85832;1285;99524;-60
2022/09/26 03:43:50;;;;;;;18.20;15.60;;;;;;;6.06;83.27;99643.99;85840;1300;88536;-61
2022/09/26 03:46:04;;;;;;;20.00;16.90;;;;;;;6.02;83.43;99645.19;85855;1284;95483;-61
2022/09/26 03:48:12;;;;;;;18.60;15.10;;;;;;;6.00;83.10;99642.49;85851;1300;82680;-51
2022/09/26 03:50:26;;;;;;;19.20;15.60;;;;;;;5.98;83.25;99643.65;85818;1285;80503;-60
2022/09/26 03:52:35;;;;;;;20.10;16.20;;;;;;;5.93;83.30;99642.91;85765;1293;98445;-63
2022/09/26 03:54:45;;;;;;;19.40;15.60;;;;;;;5.92;83.12;99638.46;85826;1293;86818;-62
2022/09/26 03:56:54;;;;;;;18.50;15.20;;;;;;;5.90;83.18;99638.67;85809;1286;93284;-59
2022/09/26 03:59:04;;;;;;;19.20;15.10;;;;;;;5.90;83.08;99636.04;85794;1284;81746;-61
2022/09/26 04:01:14;;;;;;;21.00;16.20;;;;;;;5.89;83.31;99635.98;85837;1284;83250;-62
2022/09/26 04:03:23;;;;;;;19.70;15.00;;;;;;;5.89;83.26;99632.92;85837;1293;100209;-60
2022/09/26 04:05:32;;;;;;;20.00;15.50;;;;;;;5.90;83.14;99629.70;85862;1285;86273;-51
2022/09/26 04:07:43;;;;;;;18.10;14.50;;;;;;;5.89;83.35;99632.31;85661;1288;93932;-58
2022/09/26 04:09:52;;;;;;;19.70;15.40;;;;;;;5.91;83.37;99633.75;85849;1293;80116;-59
2022/09/26 04:12:00;;;;;;;19.90;15.20;;;;;;;5.90;83.47;99629.06;85856;1294;83019;-50
2022/09/26 04:14:12;;;;;;;20.50;15.50;;;;;;;5.91;83.56;99632.27;85836;1301;99687;-57
2022/09/26 04:16:22;;;;;;;19.00;15.80;;;;;;;5.92;83.55;99633.58;85719;1296;88797;-62
2022/09/26 04:18:34;;;;;;;20.30;15.30;;;;;;;5.93;83.55;99632.46;85803;1294;95508;-61
2022/09/26 04:20:43;;;;;;;18.90;15.40;;;;;;;5.92;83.50;99630.46;85859;1288;79681;-59
2022/09/26 04:22:52;;;;;;;17.70;15.00;;;;;;;5.92;83.40;99627.91;85829;1294;82615;-60
2022/09/26 04:25:01;;;;;;;19.20;16.10;;;;;;;5.92;83.57;99628.41;85823;1300;99345;-60
2022/09/26 04:27:09;;;;;;;19.90;15.70;;;;;;;5.90;83.54;99627.20;85835;1300;86622;-60
2022/09/26 04:29:18;;;;;;;19.50;15.90;;;;;;;5.92;83.58;99625.40;85791;1300;94542;-59
2022/09/26 04:31:28;;;;;;;19.00;15.40;;;;;;;5.89;83.54;99622.17;85821;1278;81717;-58
2022/09/26 04:33:38;;;;;;;19.40;15.60;;;;;;;5.89;83.75;99620.93;85840;1280;82896;-57
2022/09/26 04:35:47;;;;;;;18.40;15.60;;;;;;;5.91;83.64;99617.97;85856;1294;99519;-55
2022/09/26 04:37:56;;;;;;;20.40;15.40;;;;;;;5.91;83.64;99616.09;85821;1301;87875;-56
2022/09/26 04:40:08;;;;;;;18.10;14.70;;;;;;;5.91;83.93;99623.66;85854;1294;95155;-58
2022/09/26 04:42:17;;;;;;;23.20;15.80;;;;;;;5.92;84.20;99620.95;85823;1301;80633;-56
2022/09/26 04:44:25;;;;;;;20.50;15.10;;;;;;;5.98;84.17;99617.79;85825;1294;81356;-56
2022/09/26 04:46:34;;;;;;;17.10;15.10;;;;;;;6.01;84.15;99617.92;85824;1299;99532;-60
2022/09/26 04:48:43;;;;;;;18.80;15.50;;;;;;;6.05;84.20;99616.05;85780;1298;88770;-62
2022/09/26 04:50:51;;;;;;;20.80;16.40;;;;;;;6.17;84.29;99610.47;85816;1284;95078;-61
2022/09/26 04:53:05;;;;;;;19.00;16.00;;;;;;;6.29;84.46;99610.83;85828;1301;82533;-61
2022/09/26 04:55:16;;;;;;;20.90;17.50;;;;;;;6.37;84.60;99610.16;85865;1295;83193;-53
2022/09/26 04:57:25;;;;;;;23.80;18.10;;;;;;;6.46;84.71;99609.59;85852;1282;99908;-53
2022/09/26 04:59:35;;;;;;;21.50;17.50;;;;;;;6.55;84.77;99610.38;85857;1300;88986;-58
2022/09/26 05:01:44;;;;;;;19.80;16.50;;;;;;;6.64;84.82;99606.71;85837;1300;95376;-58
2022/09/26 05:03:56;;;;;;;24.40;18.80;;;;;;;6.73;84.89;99605.02;85817;1300;79330;-54
2022/09/26 05:06:08;;;;;;;22.30;17.50;;;;;;;6.83;84.93;99607.49;85817;1300;83051;-52
2022/09/26 05:08:22;;;;;;;22.10;17.70;;;;;;;6.90;84.91;99604.50;85817;1285;98615;-60
2022/09/26 05:10:32;;;;;;;21.40;18.10;;;;;;;7.00;84.95;99606.70;85802;1300;88961;-60
2022/09/26 05:12:41;;;;;;;19.90;16.50;;;;;;;7.11;85.17;99606.60;85805;1300;94788;-61
2022/09/26 05:14:55;;;;;;;22.70;18.80;;;;;;;7.24;84.95;99607.35;85778;1301;82054;-59
2022/09/26 05:17:10;;;;;;;21.00;17.30;;;;;;;7.35;85.05;99604.22;85834;1294;82669;-57
2022/09/26 05:19:20;;;;;;;20.40;18.00;;;;;;;7.45;84.99;99606.84;85788;1293;97652;-59
2022/09/26 05:21:28;;;;;;;19.20;16.90;;;;;;;7.53;85.10;99604.95;85780;1300;89506;-58
2022/09/26 05:26:21;;;;;;;19.80;16.80;;;;;;;7.76;85.07;99607.44;85983;1275;82061;-58
2022/09/26 05:28:31;;;;;;;23.30;17.70;;;;;;;7.85;84.92;99604.34;85972;1285;82738;-60
2022/09/26 05:30:50;;;;;;;17.90;15.70;;;;;;;7.92;85.02;99604.95;85940;1284;100354;-60
2022/09/26 05:33:03;;;;;;;16.20;14.40;;;;;;;8.00;84.88;99604.54;85981;1294;88310;-42
2022/09/26 05:35:12;;;;;;;16.20;13.70;;;;;;;8.15;84.85;99602.61;85957;1292;94294;-58
2022/09/26 05:37:26;;;;;;;19.40;16.10;;;;;;;8.76;85.38;99599.55;85949;1292;82322;-58
2022/09/26 05:42:03;;;;;;;24.50;17.30;;;;;;;11.36;84.92;99579.08;85976;1295;99917;-57
2022/09/26 05:44:13;;;;;;;18.30;16.30;;;;;;;12.67;84.21;99582.67;85928;1292;89147;-58
2022/09/26 05:46:27;;;;;;;21.30;17.90;;;;;;;13.41;83.08;99574.83;85945;1294;95058;-59
2022/09/26 05:48:37;;;;;;;19.90;17.80;;;;;;;13.64;81.98;99569.98;85990;1298;79680;-59
2022/09/26 05:50:48;;;;;;;20.10;18.10;;;;;;;14.01;81.18;99566.45;85963;1284;83331;-59
2022/09/26 05:53:02;;;;;;;19.70;17.60;;;;;;;14.17;79.75;99564.39;85971;1285;97684;-57
2022/09/26 05:55:14;;;;;;;20.30;18.20;;;;;;;14.39;79.21;99566.16;85983;1283;88027;-57
2022/09/26 05:57:25;;;;;;;20.60;17.80;;;;;;;14.57;78.58;99558.59;85970;1295;94889;-59
2022/09/26 05:59:33;;;;;;;22.30;18.20;;;;;;;14.65;77.65;99560.45;85962;1284;80873;-57
2022/09/26 06:01:47;;;;;;;20.60;18.40;;;;;;;14.16;77.26;99562.67;85996;1292;82188;-57
2022/09/26 06:03:59;;;;;;;21.80;19.40;;;;;;;13.73;77.38;99563.47;86018;1300;99221;-57
2022/09/26 06:06:13;;;;;;;21.70;19.40;;;;;;;13.33;77.74;99563.83;86046;1294;88202;-58
2022/09/26 06:08:27;;;;;;;20.60;18.20;;;;;;;12.97;78.13;99569.02;86025;1294;94528;-58
2022/09/26 06:10:39;;;;;;;22.20;19.10;;;;;;;12.69;78.21;99567.42;86001;1297;79377;-57
2022/09/26 06:12:48;;;;;;;22.10;19.40;;;;;;;12.49;78.35;99569.95;86020;1294;83212;-60
2022/09/26 06:14:58;;;;;;;19.70;17.60;;;;;;;12.38;78.51;99572.84;85930;1294;100736;-61
2022/09/26 06:17:09;;;;;;;21.60;18.50;;;;;;;12.26;78.68;99573.76;85930;1292;87484;-59
2022/09/26 06:19:18;;;;;;;21.90;17.50;;;;;;;12.18;78.85;99576.98;85945;1295;95079;-61
2022/09/26 06:21:30;;;;;;;18.80;16.50;;;;;;;12.11;79.11;99573.17;85913;1298;82591;-61
2022/09/26 06:23:40;;;;;;;19.70;17.00;;;;;;;12.12;79.10;99576.83;85955;1294;82213;-58
2022/09/26 06:25:50;;;;;;;21.10;18.90;;;;;;;12.15;78.99;99580.84;85959;1292;100033;-61
2022/09/26 06:28:02;;;;;;;20.00;18.10;;;;;;;12.16;79.28;99577.41;85869;1293;89446;-60
2022/09/26 06:30:13;;;;;;;23.20;18.30;;;;;;;12.22;79.27;99580.86;85843;1301;95788;-58
2022/09/26 06:32:22;;;;;;;24.80;19.00;;;;;;;12.26;79.40;99581.42;85850;1301;80100;-57
2022/09/26 06:34:32;;;;;;;21.60;18.20;;;;;;;12.30;79.59;99581.92;85889;1294;84892;-55
2022/09/26 06:36:41;;;;;;;26.00;19.90;;;;;;;12.41;79.70;99579.38;85892;1294;100069;-60
2022/09/26 06:38:50;;;;;;;22.20;18.60;;;;;;;12.48;79.78;99576.62;85877;1294;88446;-53
2022/09/26 06:40:59;;;;;;;22.70;19.90;;;;;;;12.56;79.81;99578.02;85847;1294;94205;-60
2022/09/26 06:43:08;;;;;;;23.40;20.80;;;;;;;12.67;79.83;99583.86;85883;1294;79953;-60
2022/09/26 06:45:18;;;;;;;22.80;19.90;;;;;;;12.78;79.83;99583.17;85926;1294;81797;-58
2022/09/26 06:47:28;;;;;;;25.70;21.90;;;;;;;12.94;79.79;99581.95;85849;1294;99051;-60
2022/09/26 06:49:38;;;;;;;25.00;21.10;;;;;;;13.05;79.90;99583.08;85852;1300;88715;-62
2022/09/26 06:51:48;;;;;;;22.90;19.00;;;;;;;13.12;79.83;99584.19;85861;1293;95357;-58
2022/09/26 06:53:59;;;;;;;25.20;20.40;;;;;;;13.23;79.80;99579.09;85878;1301;82018;-58
2022/09/26 06:56:08;;;;;;;23.50;18.40;;;;;;;13.29;79.81;99578.74;85886;1294;82946;-60
2022/09/26 06:58:17;;;;;;;22.40;19.20;;;;;;;13.36;79.77;99579.19;85869;1298;98992;-61
2022/09/26 07:00:28;;;;;;;23.50;20.90;;;;;;;13.52;79.73;99579.23;85860;1294;89616;-61
2022/09/26 07:02:37;;;;;;;23.20;20.00;;;;;;;13.65;79.58;99578.61;85871;1290;95708;-58
2022/09/26 07:04:46;;;;;;;23.40;20.70;;;;;;;13.69;79.58;99577.02;85845;1293;82791;-58
2022/09/26 07:06:55;;;;;;;22.60;20.00;;;;;;;13.80;79.64;99576.16;85861;1295;83470;-57
2022/09/26 07:09:10;;;;;;;22.60;20.10;;;;;;;13.93;79.52;99577.29;85858;1300;99403;-57
2022/09/26 07:11:18;;;;;;;;;;;;;;;14.07;79.41;99575.67;85893;1295;89130;-58
2022/09/26 07:13:30;;;;;;;25.10;21.90;;;;;;;14.17;79.36;99577.07;85875;1293;97179;-63
2022/09/26 07:15:39;;;;;;;24.40;21.80;;;;;;;14.28;79.11;99578.48;85881;1294;80584;-62
2022/09/26 07:17:49;;;;;;;24.40;20.90;;;;;;;14.35;79.00;99580.95;85864;1293;83282;-59
2022/09/26 07:20:00;;;;;;;25.30;22.40;;;;;;;14.42;78.95;99579.67;85862;1293;98278;-61
2022/09/26 07:22:10;;;;;;;24.30;21.10;;;;;;;14.50;78.96;99582.80;85894;1294;88355;-58
2022/09/26 07:24:20;;;;;;;25.20;21.80;;;;;;;14.71;79.11;99580.00;85849;1297;94086;-58
2022/09/26 07:26:29;;;;;;;25.40;20.40;;;;;;;15.34;79.41;99577.52;85889;1293;81942;-61
2022/09/26 07:28:38;;;;;;;24.00;20.70;;;;;;;16.26;78.17;99577.52;85963;1298;82737;-60
2022/09/26 07:30:48;;;;;;;23.40;20.80;;;;;;;16.56;76.80;99581.43;85970;1291;99279;-61
2022/09/26 07:33:03;;;;;;;26.50;21.60;;;;;;;16.59;76.59;99582.86;85961;1300;88740;-63
2022/09/26 07:35:16;;;;;;;22.50;19.70;;;;;;;17.14;76.67;99583.63;86003;1294;95608;-61
2022/09/26 07:37:25;;;;;;;22.20;19.70;;;;;;;18.15;75.84;99581.66;85962;1292;78979;-68
2022/09/26 07:39:34;;;;;;;22.60;19.90;;;;;;;18.92;74.43;99581.29;85946;1294;82537;-59
2022/09/26 07:41:45;;;;;;;22.50;20.10;;;;;;;19.77;73.15;99578.91;85963;1300;99910;-62
2022/09/26 07:43:54;;;;;;;22.10;19.00;;;;;;;20.33;72.09;99578.23;85976;1285;88355;-61
2022/09/26 07:51:01;;;;;;;19.00;17.10;;;;;;;22.11;68.90;99570.30;86011;1301;81895;-62
2022/09/26 07:53:09;;;;;;;20.20;16.80;;;;;;;23.00;68.05;99570.00;85939;1293;100113;-61
2022/09/26 07:55:24;;;;;;;19.30;16.60;;;;;;;23.88;66.89;99565.02;85983;1301;89118;-61
2022/09/26 07:57:36;;;;;;;17.30;15.50;;;;;;;24.66;65.19;99562.96;85941;1294;93008;-59
2022/09/26 07:59:49;;;;;;;19.70;17.80;;;;;;;25.33;63.51;99565.24;85843;1294;78802;-53
2022/09/26 08:01:57;;;;;;;16.70;15.10;;;;;;;25.64;61.90;99566.04;85963;1293;82119;-62
2022/09/26 08:04:07;;;;;;;16.50;14.90;;;;;;;25.78;59.76;99558.27;85973;1292;99874;-63
2022/09/26 08:06:19;;;;;;;15.00;13.60;;;;;;;26.31;59.54;99550.33;85994;1292;89058;-61
2022/09/26 08:08:29;;;;;;;17.00;15.00;;;;;;;26.51;57.53;99553.11;85980;1294;95013;-61
2022/09/26 08:10:38;;;;;;;15.50;14.00;;;;;;;26.82;56.84;99553.93;85960;1292;78986;-60
2022/09/26 08:12:46;;;;;;;16.50;14.70;;;;;;;27.12;56.31;99552.21;85962;1294;83132;-60
2022/09/26 08:14:56;;;;;;;17.40;15.80;;;;;;;27.33;55.63;99555.18;85989;1300;97536;-61
2022/09/26 08:17:04;;;;;;;17.20;15.40;;;;;;;27.53;54.53;99551.31;85981;1297;86782;-53
2022/09/26 08:19:18;;;;;;;17.30;15.60;;;;;;;27.55;52.96;99551.02;85930;1300;95028;-63
2022/09/26 08:21:28;;;;;;;16.80;15.10;;;;;;;27.70;52.66;99547.27;85992;1285;80541;-60
2022/09/26 08:23:38;;;;;;;18.20;16.70;;;;;;;27.34;51.42;99545.02;85953;1294;82486;-50
2022/09/26 08:25:47;;;;;;;19.70;17.90;;;;;;;26.93;50.15;99538.58;85969;1293;98300;-60
2022/09/26 08:27:58;;;;;;;19.90;17.50;;;;;;;26.49;50.83;99538.19;85976;1294;88887;-62
2022/09/26 08:30:10;;;;;;;19.00;17.10;;;;;;;26.44;50.91;99537.52;85933;1294;96156;-62
2022/09/26 08:32:20;;;;;;;18.50;16.90;;;;;;;26.42;50.54;99536.59;85959;1294;80728;-56
2022/09/26 08:34:34;;;;;;;18.40;16.60;;;;;;;26.63;50.32;99538.55;85972;1294;83248;-60
2022/09/26 08:36:42;;;;;;;18.50;16.70;;;;;;;26.81;49.94;99539.89;85957;1297;99254;-60
2022/09/26 08:38:52;;;;;;;16.10;14.60;;;;;;;27.02;49.00;99539.25;85922;1301;89650;-60
2022/09/26 08:41:20;;;;;;;16.20;14.40;;;;;;;26.83;47.80;99537.73;85978;1294;94959;-62
2022/09/26 08:43:50;;;;;;;14.70;13.30;;;;;;;26.62;46.82;99534.25;85950;1300;80645;-60
2022/09/26 08:46:37;;;;;;;14.20;12.80;;;;;;;26.05;47.50;99536.08;85924;1294;82862;-59
2022/09/26 08:49:19;;;;;;;13.60;12.50;;;;;;;25.61;48.43;99537.59;85950;1293;98424;-59
2022/09/26 08:51:34;;;;;;;13.90;12.60;;;;;;;25.37;47.96;99538.30;85949;1300;89279;-59
2022/09/26 08:53:50;;;;;;;13.80;12.50;;;;;;;25.01;48.30;99535.17;85944;1292;96099;-59
2022/09/26 08:56:04;;;;;;;14.90;13.40;;;;;;;25.13;48.49;99535.78;85964;1294;80395;-63
2022/09/26 08:58:20;;;;;;;14.00;12.70;;;;;;;25.19;48.63;99530.95;85975;1285;82922;-60
2022/09/26 09:00:36;;;;;;;14.00;12.60;;;;;;;25.53;47.97;99527.46;85979;1299;99264;-62
2022/09/26 09:02:58;;;;;;;14.30;12.90;;;;;;;25.73;48.22;99522.84;85956;1300;89001;-58
2022/09/26 09:05:17;;;;;;;15.40;13.80;;;;;;;26.10;48.40;99515.80;85951;1294;94500;-60
2022/09/26 09:07:28;;;;;;;16.20;14.50;;;;;;;26.29;47.50;99514.91;85963;1292;78989;-62
2022/09/26 09:09:38;;;;;;;15.70;14.20;;;;;;;26.46;47.43;99513.84;85974;1292;83340;-61
2022/09/26 09:12:17;;;;;;;17.00;15.40;;;;;;;26.53;46.78;99509.67;85951;1300;100049;-61
2022/09/26 09:14:53;;;;;;;14.40;13.00;;;;;;;26.68;46.71;99510.55;85973;1298;87705;-62
2022/09/26 09:17:18;;;;;;;14.50;13.00;;;;;;;26.89;47.24;99506.36;85951;1294;95440;-62
2022/09/26 09:19:39;;;;;;;17.00;15.20;;;;;;;27.06;46.53;99504.23;85958;1294;80737;-60
2022/09/26 09:22:03;;;;;;;15.70;14.00;;;;;;;27.23;46.03;99506.48;85962;1294;83389;-58
2022/09/26 09:24:25;;;;;;;15.40;14.00;;;;;;;27.34;45.47;99504.93;85942;1295;100219;-51
2022/09/26 09:26:45;;;;;;;15.20;13.60;;;;;;;27.17;45.96;99501.83;85939;1292;88654;-51
2022/09/26 09:29:17;;;;;;;15.00;13.60;;;;;;;27.34;44.99;99500.16;85946;1299;95361;-62
2022/09/26 09:31:30;;;;;;;15.90;14.40;;;;;;;27.26;44.41;99501.73;85931;1298;81201;-57
2022/09/26 09:33:43;;;;;;;14.50;13.10;;;;;;;26.79;45.46;99496.38;85947;1293;80762;-58
2022/09/26 09:35:59;;;;;;;12.70;11.50;;;;;;;26.32;45.71;99495.61;85952;1297;99059;-60
2022/09/26 09:38:14;;;;;;;12.20;10.40;;;;;;;25.84;46.01;99495.09;85972;1292;88854;-59
2022/09/26 09:40:33;;;;;;;13.40;12.10;;;;;;;25.54;45.24;99495.52;85944;1294;95002;-57
2022/09/26 09:42:49;;;;;;;11.20;10.10;;;;;;;24.99;45.52;99497.30;85979;1298;80558;-61
2022/09/26 09:45:06;;;;;;;11.10;10.00;;;;;;;24.52;45.86;99496.47;85959;1293;82638;-62
2022/09/26 09:47:18;;;;;;;11.60;10.40;;;;;;;23.92;45.94;99491.63;85956;1290;98979;-59
2022/09/26 09:49:30;;;;;;;10.30;9.30;;;;;;;23.29;46.32;99491.02;85982;1294;86986;-59
2022/09/26 09:51:51;;;;;;;14.20;10.90;;;;;;;22.68;46.94;99495.33;85957;1297;95310;-58
2022/09/26 09:54:22;;;;;;;12.50;11.30;;;;;;;22.29;47.83;99495.06;85923;1294;80439;-57
2022/09/26 09:56:44;;;;;;;11.60;10.50;;;;;;;21.77;49.03;99491.18;85965;1293;83523;-48
2022/09/26 09:59:15;;;;;;;12.90;11.50;;;;;;;21.65;49.39;99490.30;85955;1285;98905;-60
2022/09/26 10:01:30;;;;;;;12.70;11.30;;;;;;;21.21;50.29;99501.40;85888;1294;89490;-60
2022/09/26 10:03:49;;;;;;;11.80;10.60;;;;;;;21.17;50.82;99498.95;85945;1292;95261;-53
2022/09/26 10:06:01;;;;;;;10.60;9.50;;;;;;;21.10;50.56;99493.95;85949;1293;79276;-58
2022/09/26 10:08:18;;;;;;;12.80;9.50;;;;;;;21.03;51.23;99494.41;85679;1292;395390;-58
2022/09/26 10:10:37;;;;;;;11.20;10.10;;;;;;;21.07;51.61;99497.98;85973;1294;100586;-57
2022/09/26 10:12:50;;;;;;;12.10;10.40;;;;;;;20.98;51.77;99501.56;85961;1294;87996;-55
2022/09/26 10:15:05;;;;;;;12.70;10.90;;;;;;;20.78;52.02;99502.64;85955;1284;95719;-53
2022/09/26 10:17:23;;;;;;;12.70;11.40;;;;;;;20.67;52.29;99504.09;85969;1293;80133;-59
2022/09/26 10:19:42;;;;;;;13.10;11.10;;;;;;;20.52;52.00;99496.91;85965;1293;82814;-61
2022/09/26 10:21:52;;;;;;;12.80;11.40;;;;;;;20.41;52.19;99498.20;85959;1300;99583;-57
2022/09/26 10:24:02;;;;;;;11.50;10.40;;;;;;;20.36;52.75;99499.73;85958;1294;87683;-56
2022/09/26 10:26:13;;;;;;;13.50;10.30;;;;;;;20.40;52.67;99501.77;85837;1295;94769;-58
2022/09/26 10:28:34;;;;;;;11.30;10.20;;;;;;;20.38;52.20;99501.27;85944;1298;81202;-58